Terminal Aerodrome Forecast
Issued by NWS Binghamton, NY

Home | Current Version | Previous Version | Text Only | Print | Product List | Glossary On
Versions: 1 2 3 4 5 6 7 8 9 10 11 12 13 14 15 16 17
029
FTUS41 KBGM 261721
TAFSYR
TAF
KSYR 261721Z 2618/2718 19008KT P6SM BKN040
     FM270000 18005KT P6SM FEW040 BKN150
     FM270500 18005KT P6SM SCT040 OVC090
     FM271100 VRB05KT P6SM -SHRA SCT025 OVC050=

USA.gov is the U.S. government's official web portal to all federal, state and local government web resources and services.